Weiner, Arkansas
Current Conditions -  °F | °C
As of 2:56 PM on Monday 24 Nov 2014 (Local Time) from KM19 Reporting Station
Clear Clear  
Wind Chill: 58°   Ceiling: Unl
Heat Index: 58°   Visibility: 10mi
Dew Point: 32°   Wind: 15mph
Humidity: 37%   Direction: 230°SW
Pressure: 29.87"   Gusts: NA
Location:  35.62°N, 90.9°W
Report Text: KM19 242056Z AUTO 23013KT 10SM CLR 14/00 A2987 RMK AO2 55000 T01440000 SLP115
Loading
Personal Weather Stations






























Interactive Weather Map New forecast layout! Learn more

10-Day Weather Forecast

Advertisements
Track Severe Weather on mobile